Time;durP1;ratioP1;P1;durP2;ratioP2;P2;SDS_P1;SDS_P2;PMS_P1;PMS_P2;Temp;Humidity;BMP_temperature;BMP_pressure;BME280_temperature;BME280_humidity;BME280_pressure;Samples;Min_cycle;Max_cycle;Signal;HPM_P1;HPM_P2
2022/03/14 00:02:26;;;;;;;59.55;25.67;;;;;;;-1.49;47.66;101387.22;6347988;28;20043;-71
2022/03/14 00:05:31;;;;;;;58.63;25.05;;;;;;;-1.57;46.48;101384.59;6347754;28;20131;-71
2022/03/14 00:08:32;;;;;;;45.22;23.48;;;;;;;-1.55;45.51;101387.16;6346618;28;20040;-70
2022/03/14 00:11:35;;;;;;;49.05;21.02;;;;;;;-1.58;43.53;101385.44;6347724;28;20503;-70
2022/03/14 00:14:36;;;;;;;47.97;21.13;;;;;;;-1.55;43.53;101385.47;6346462;28;20046;-70
2022/03/14 00:17:39;;;;;;;45.55;21.85;;;;;;;-1.55;44.35;101382.06;6346278;28;20122;-70
2022/03/14 00:20:42;;;;;;;41.15;20.52;;;;;;;-1.58;43.62;101390.56;6346219;28;20047;-70
2022/03/14 00:23:43;;;;;;;43.42;19.88;;;;;;;-1.56;44.30;101399.13;6345391;28;20475;-70
2022/03/14 00:26:44;;;;;;;50.38;21.05;;;;;;;-1.62;43.73;101394.78;6347108;28;20039;-70
2022/03/14 00:29:45;;;;;;;45.40;20.98;;;;;;;-1.63;43.40;101402.44;6347235;28;20078;-70
2022/03/14 00:32:46;;;;;;;44.25;20.55;;;;;;;-1.58;43.32;101399.97;6347101;28;20044;-70
2022/03/14 00:35:47;;;;;;;52.65;20.83;;;;;;;-1.57;42.58;101397.38;6347079;28;20036;-70
2022/03/14 00:38:48;;;;;;;46.22;19.73;;;;;;;-1.58;42.69;101389.72;6345585;28;20112;-70
2022/03/14 00:41:49;;;;;;;45.97;20.88;;;;;;;-1.53;42.24;101395.72;6346952;28;20036;-70
2022/03/14 00:44:51;;;;;;;48.55;21.77;;;;;;;-1.52;42.91;101395.75;6347141;28;20040;-70
2022/03/14 00:47:51;;;;;;;42.47;20.23;;;;;;;-1.51;42.45;101405.13;6346525;28;20503;-70
2022/03/14 00:50:53;;;;;;;43.92;20.05;;;;;;;-1.53;42.29;101411.94;6345364;28;20050;-70
2022/03/14 00:53:54;;;;;;;53.38;22.75;;;;;;;-1.59;42.80;101408.47;6346643;28;20040;-71
2022/03/14 00:56:55;;;;;;;45.45;21.98;;;;;;;-1.60;42.90;101417.00;6345340;28;20071;-69
2022/03/14 00:59:56;;;;;;;65.32;32.90;;;;;;;-1.62;42.99;101410.16;6328351;28;20396;-70
2022/03/14 01:02:58;;;;;;;65.57;33.72;;;;;;;-1.63;43.33;101411.00;6346460;28;20039;-69
2022/03/14 01:05:59;;;;;;;67.40;33.22;;;;;;;-1.63;43.81;101422.91;6345114;28;20400;-69
2022/03/14 01:09:00;;;;;;;72.30;33.72;;;;;;;-1.74;44.07;101421.97;6346226;28;20039;-69
2022/03/14 01:12:01;;;;;;;77.55;35.03;;;;;;;-1.74;43.87;101424.50;6345067;28;20048;-69
2022/03/14 01:15:03;;;;;;;62.47;29.55;;;;;;;-1.76;44.57;101418.53;6346186;28;20050;-69
2022/03/14 01:18:06;;;;;;;64.03;26.42;;;;;;;-1.79;43.92;101428.69;6328301;28;20051;-69
2022/03/14 01:21:07;;;;;;;57.88;24.48;;;;;;;-1.86;45.28;101432.91;6344837;28;20040;-69
2022/03/14 01:24:08;;;;;;;59.55;25.10;;;;;;;-1.84;44.62;101436.34;6311476;28;20058;-69
2022/03/14 01:27:09;;;;;;;53.72;21.50;;;;;;;-1.88;44.80;101437.97;6344635;28;20040;-69
2022/03/14 01:30:11;;;;;;;50.75;23.10;;;;;;;-1.88;44.38;101444.81;6346040;28;20496;-66
2022/03/14 01:33:13;;;;;;;50.13;21.42;;;;;;;-1.88;44.00;101430.31;6344403;28;20438;-66
2022/03/14 01:36:14;;;;;;;51.57;23.70;;;;;;;-1.90;43.94;101434.56;6345991;28;20054;-67
2022/03/14 01:39:15;;;;;;;43.60;21.00;;;;;;;-1.93;44.29;101454.16;6327405;28;20284;-67
2022/03/14 01:42:19;;;;;;;47.78;20.77;;;;;;;-1.98;44.12;101453.22;6327841;28;20091;-66
2022/03/14 01:45:21;;;;;;;43.60;20.35;;;;;;;-2.00;45.42;101460.00;6327698;28;20232;-66
2022/03/14 01:48:24;;;;;;;54.38;21.88;;;;;;;-2.02;45.80;101454.88;6344463;28;20060;-67
2022/03/14 01:51:25;;;;;;;48.55;21.08;;;;;;;-2.24;46.54;101457.16;6345694;28;20134;-66
2022/03/14 01:54:26;;;;;;;49.15;21.33;;;;;;;-2.16;46.44;101464.03;6344436;28;20040;-66
2022/03/14 01:57:27;;;;;;;61.28;26.85;;;;;;;-2.17;47.75;101457.22;6345581;28;20096;-67
2022/03/14 02:00:29;;;;;;;55.67;24.42;;;;;;;-2.15;48.26;101466.63;6344446;28;20059;-66
2022/03/14 02:03:29;;;;;;;52.85;23.75;;;;;;;-2.31;49.07;101463.00;6344901;28;20063;-66
2022/03/14 02:06:32;;;;;;;54.67;24.83;;;;;;;-2.29;49.60;101468.13;6327542;28;20056;-67
2022/03/14 02:09:33;;;;;;;;;;;;;;;-2.33;50.04;101471.47;6346369;28;20485;-66
2022/03/14 02:12:34;;;;;;;59.95;22.95;;;;;;;-2.53;50.53;101481.41;6345500;28;19920;-66
2022/03/14 02:15:36;;;;;;;56.47;24.65;;;;;;;-2.58;49.69;101475.38;6345517;28;20079;-66
2022/03/14 02:18:37;;;;;;;53.38;23.65;;;;;;;-2.57;50.72;101484.75;6345446;28;20044;-66
2022/03/14 02:21:38;;;;;;;60.58;24.38;;;;;;;-2.59;50.36;101482.19;6345416;28;20040;-69
2022/03/14 02:24:44;;;;;;;50.00;24.42;;;;;;;-2.68;51.04;101485.47;6327345;28;20067;-69
2022/03/14 02:27:45;;;;;;;56.28;25.50;;;;;;;-2.64;51.26;101488.91;6345203;28;20078;-69
2022/03/14 02:30:46;;;;;;;56.15;26.17;;;;;;;-2.68;50.57;101492.25;6344067;28;20043;-69
2022/03/14 02:33:47;;;;;;;63.92;25.58;;;;;;;-2.69;50.20;101496.50;6345244;28;20099;-69
2022/03/14 02:36:48;;;;;;;55.50;24.02;;;;;;;-2.76;50.46;101497.25;6345267;28;20453;-69
2022/03/14 02:39:49;;;;;;;56.30;24.25;;;;;;;-2.83;51.06;101493.72;6344988;28;20047;-69
2022/03/14 02:42:50;;;;;;;52.33;22.65;;;;;;;-2.83;51.66;101505.63;6327110;28;20047;-69
2022/03/14 02:45:52;;;;;;;54.97;23.83;;;;;;;-2.87;53.31;101502.16;6345263;28;20052;-69
2022/03/14 02:48:53;;;;;;;55.25;24.52;;;;;;;-2.88;51.67;101510.66;6348389;28;20071;-69
2022/03/14 02:51:54;;;;;;;54.30;23.73;;;;;;;-2.93;51.90;101509.72;6349377;28;20503;-69
2022/03/14 02:54:55;;;;;;;56.00;23.67;;;;;;;-3.00;51.01;101507.03;6348249;28;20046;-69
2022/03/14 02:57:58;;;;;;;67.40;27.83;;;;;;;-2.97;50.23;101513.03;6349413;28;20043;-69
2022/03/14 03:01:01;;;;;;;81.28;28.75;;;;;;;-2.95;50.07;101507.97;6349303;28;20487;-69
2022/03/14 03:04:04;;;;;;;66.22;26.05;;;;;;;-2.90;50.75;101517.44;6349367;28;20039;-69
2022/03/14 03:07:04;;;;;;;;;;;;;;;-2.91;49.92;101523.38;6348360;28;20096;-69
2022/03/14 03:10:07;;;;;;;50.97;22.00;;;;;;;-2.94;50.52;101523.34;6331096;28;19923;-70
2022/03/14 03:13:10;;;;;;;46.20;22.30;;;;;;;-2.93;49.94;101519.06;6349061;28;20051;-69
2022/03/14 03:16:14;;;;;;;54.17;22.05;;;;;;;-2.92;49.85;101519.13;6347805;28;20051;-70
2022/03/14 03:19:15;;;;;;;53.00;22.65;;;;;;;-2.92;50.24;101515.72;6347622;28;20039;-69
2022/03/14 03:22:17;;;;;;;48.17;22.40;;;;;;;-2.91;53.70;101518.25;6348928;28;20491;-69
2022/03/14 03:25:18;;;;;;;47.45;21.73;;;;;;;-2.97;54.16;101522.41;6348795;28;20039;-67
2022/03/14 03:28:19;;;;;;;47.33;22.52;;;;;;;-3.08;56.22;101525.63;6313978;28;20078;-66
2022/03/14 03:31:20;;;;;;;50.33;23.35;;;;;;;-3.11;56.66;101529.81;6348730;28;20067;-67
2022/03/14 03:34:21;;;;;;;56.88;23.38;;;;;;;-3.12;55.85;101533.22;6347500;28;20056;-67
2022/03/14 03:37:22;;;;;;;51.33;23.38;;;;;;;-3.14;57.03;101529.75;6348645;28;20403;-66
2022/03/14 03:40:22;;;;;;;55.25;23.17;;;;;;;-3.24;55.83;101532.13;6348478;28;20059;-66
2022/03/14 03:43:23;;;;;;;49.92;23.58;;;;;;;-3.29;56.89;101531.19;6347233;28;20075;-66
2022/03/14 03:46:24;;;;;;;51.70;22.95;;;;;;;-3.37;57.78;101540.41;6346880;28;20066;-66
2022/03/14 03:49:25;;;;;;;59.72;23.50;;;;;;;-3.40;57.18;101547.97;6348254;28;20445;-66
2022/03/14 03:52:26;;;;;;;53.53;23.67;;;;;;;-3.49;58.05;101548.66;6346836;28;20058;-67
2022/03/14 03:55:28;;;;;;;62.80;24.88;;;;;;;-3.50;58.98;101548.63;6347150;28;20051;-67
2022/03/14 03:58:29;;;;;;;58.20;25.23;;;;;;;-3.53;58.47;101548.56;6347957;28;20054;-67
2022/03/14 04:01:31;;;;;;;61.75;25.88;;;;;;;-3.56;57.57;101549.38;6330050;28;20126;-66
2022/03/14 04:04:32;;;;;;;66.03;27.55;;;;;;;-3.64;59.34;101553.47;6348040;28;20047;-66
2022/03/14 04:07:34;;;;;;;53.85;24.42;;;;;;;-3.61;59.13;101565.41;6346313;28;20067;-67
2022/03/14 04:10:35;;;;;;;56.63;24.90;;;;;;;-3.70;59.81;101560.97;6347720;28;20044;-66
2022/03/14 04:13:36;;;;;;;62.13;26.45;;;;;;;-3.73;59.19;101561.75;6346400;28;20050;-66
2022/03/14 04:16:41;;;;;;;57.65;25.38;;;;;;;-3.77;59.02;101572.72;6347789;28;20044;-66
2022/03/14 04:19:41;;;;;;;60.75;26.60;;;;;;;-3.74;59.64;101569.41;6347421;28;20441;-66
2022/03/14 04:22:42;;;;;;;56.95;25.05;;;;;;;-3.78;60.55;101572.69;6346343;28;20036;-66
2022/03/14 04:25:44;;;;;;;56.80;26.13;;;;;;;-3.81;61.14;101577.72;6346269;28;20039;-66
2022/03/14 04:28:45;;;;;;;70.63;28.77;;;;;;;-3.91;59.80;101580.09;6347125;28;20036;-66
2022/03/14 04:31:46;;;;;;;58.83;27.30;;;;;;;-3.98;59.42;101582.44;6345999;28;20043;-66
2022/03/14 04:34:46;;;;;;;66.20;25.77;;;;;;;-3.96;61.23;101586.75;6347033;28;20043;-66
2022/03/14 04:37:47;;;;;;;62.00;25.70;;;;;;;-3.91;59.46;101584.28;6345882;28;20044;-66
2022/03/14 04:40:48;;;;;;;56.17;26.05;;;;;;;-3.91;60.60;101582.63;6328852;28;20556;-66
2022/03/14 04:43:49;;;;;;;57.45;26.33;;;;;;;-3.88;61.16;101592.88;6345871;28;20489;-66
2022/03/14 04:46:50;;;;;;;56.92;25.70;;;;;;;-3.93;61.55;101594.47;6346810;28;20500;-66
2022/03/14 04:49:51;;;;;;;51.10;25.50;;;;;;;-3.96;61.13;101593.53;6345533;28;20523;-67
2022/03/14 04:52:52;;;;;;;51.38;25.65;;;;;;;-4.04;61.30;101595.91;6345413;28;20494;-66
2022/03/14 04:55:53;;;;;;;58.63;26.38;;;;;;;-4.06;61.26;101606.09;6328703;28;20039;-66
2022/03/14 04:58:53;;;;;;;58.40;27.10;;;;;;;-4.06;60.40;101612.84;6345405;28;20058;-66
2022/03/14 05:01:54;;;;;;;62.38;26.42;;;;;;;-4.03;61.11;101612.09;6345385;28;20048;-69
2022/03/14 05:04:55;;;;;;;55.80;26.27;;;;;;;-4.00;61.34;101615.56;6345382;28;20043;-69
2022/03/14 05:07:56;;;;;;;63.88;27.33;;;;;;;-4.07;61.13;101612.00;6345913;28;20550;-69
2022/03/14 05:10:58;;;;;;;50.97;25.00;;;;;;;-4.03;61.49;101622.28;6345093;28;20046;-69
2022/03/14 05:13:59;;;;;;;62.95;26.98;;;;;;;-3.99;62.31;101627.50;6346251;28;20043;-69
2022/03/14 05:17:00;;;;;;;52.60;25.13;;;;;;;-4.01;61.88;101630.84;6345184;28;20077;-70
2022/03/14 05:20:03;;;;;;;54.78;25.73;;;;;;;-4.00;62.82;101635.09;6346087;28;20415;-69
2022/03/14 05:23:03;;;;;;;;;;;;;;;-3.94;61.12;101636.09;6328761;28;20105;-69
2022/03/14 05:26:05;;;;;;;55.58;22.55;;;;;;;-3.91;60.36;101637.84;6344875;28;19923;-69
2022/03/14 05:29:06;;;;;;;62.90;25.95;;;;;;;-3.88;61.57;101643.03;6344776;28;20032;-69
2022/03/14 05:32:08;;;;;;;55.25;25.67;;;;;;;-3.80;61.97;101651.72;6328255;28;20927;-69
2022/03/14 05:35:15;;;;;;;61.03;29.00;;;;;;;-3.80;60.26;101644.09;6344833;28;20040;-69
2022/03/14 05:38:16;;;;;;;100.43;36.22;;;;;;;-3.75;61.16;101647.59;6345943;28;20075;-69
2022/03/14 05:41:18;;;;;;;78.97;30.50;;;;;;;-3.66;61.77;101652.06;6345870;28;20407;-69
2022/03/14 05:44:19;;;;;;;99.10;37.33;;;;;;;-3.50;61.90;101666.88;6344561;28;20036;-69
2022/03/14 05:47:20;;;;;;;113.93;40.78;;;;;;;-3.42;59.33;101672.16;6345649;28;20403;-69
2022/03/14 05:50:22;;;;;;;108.57;39.78;;;;;;;-3.40;61.74;101673.03;6344586;28;20061;-69
2022/03/14 05:53:23;;;;;;;96.97;36.87;;;;;;;-3.30;60.76;101677.53;6344171;28;20056;-69
2022/03/14 05:56:24;;;;;;;89.18;32.78;;;;;;;-3.13;58.26;101677.03;6345743;28;20320;-69
2022/03/14 05:59:25;;;;;;;93.10;34.25;;;;;;;-2.99;59.67;101675.63;6345702;28;20552;-69
2022/03/14 06:02:25;;;;;;;72.78;28.60;;;;;;;-2.85;57.62;101676.75;6344519;28;20516;-69
2022/03/14 06:05:27;;;;;;;66.80;28.10;;;;;;;-2.72;59.34;101679.56;6327572;28;20086;-70
2022/03/14 06:08:28;;;;;;;58.67;24.60;;;;;;;-2.53;56.05;101681.66;6344291;28;20043;-69
2022/03/14 06:11:29;;;;;;;55.47;23.83;;;;;;;-2.36;56.23;101676.84;6345494;28;20675;-69
2022/03/14 06:14:30;;;;;;;45.50;21.92;;;;;;;-2.16;56.42;101683.97;6344276;28;20039;-69
2022/03/14 06:17:31;;;;;;;44.88;20.20;;;;;;;-1.96;54.12;101687.75;6344329;28;20465;-69
2022/03/14 06:20:32;;;;;;;46.65;20.58;;;;;;;-1.74;53.32;101693.22;6345000;28;20069;-69
2022/03/14 06:23:34;;;;;;;40.22;18.98;;;;;;;-1.53;53.36;101693.53;6350402;28;20039;-70
2022/03/14 06:26:35;;;;;;;42.35;18.08;;;;;;;-1.31;52.78;101694.72;6349026;28;20486;-69
2022/03/14 06:29:36;;;;;;;42.28;18.05;;;;;;;-1.12;51.44;101700.94;6350002;28;20487;-70
2022/03/14 06:32:39;;;;;;;38.50;17.30;;;;;;;-0.90;50.58;101701.25;6349963;28;20043;-70
2022/03/14 06:35:41;;;;;;;;;;;;;;;-0.65;50.04;101704.97;6350439;28;20046;-70
2022/03/14 06:38:41;;;;;;;35.00;16.70;;;;;;;-0.46;48.53;101704.31;6366172;27;19927;-70
2022/03/14 06:41:43;;;;;;;33.22;17.10;;;;;;;-0.30;49.44;101712.19;6349665;28;20083;-70
2022/03/14 06:44:44;;;;;;;45.55;19.13;;;;;;;-0.11;48.92;101711.50;6348757;28;20112;-70
2022/03/14 06:47:45;;;;;;;48.33;18.33;;;;;;;0.18;48.65;101709.19;6348416;28;20438;-69
2022/03/14 06:50:46;;;;;;;37.78;17.88;;;;;;;0.42;47.75;101715.38;6331464;28;20050;-69
2022/03/14 06:53:47;;;;;;;44.97;17.67;;;;;;;0.61;47.58;101718.94;6349443;28;20415;-70
2022/03/14 06:56:48;;;;;;;30.83;16.70;;;;;;;0.78;47.15;101722.47;6349484;28;20047;-70
2022/03/14 06:59:49;;;;;;;34.85;16.50;;;;;;;1.02;47.20;101728.59;6348370;28;20097;-66
2022/03/14 07:02:50;;;;;;;34.08;16.92;;;;;;;1.25;46.63;101733.00;6348067;28;20044;-66
2022/03/14 07:05:51;;;;;;;31.23;16.10;;;;;;;1.45;45.31;101730.50;6349368;28;20046;-68
2022/03/14 07:08:51;;;;;;;37.28;18.52;;;;;;;1.67;44.57;101739.13;6349162;28;20035;-68
2022/03/14 07:11:52;;;;;;;31.30;16.75;;;;;;;1.78;44.11;101738.31;6331040;28;20056;-66
2022/03/14 07:14:53;;;;;;;27.35;14.40;;;;;;;2.05;43.74;101735.78;6347859;28;20070;-67
2022/03/14 07:17:55;;;;;;;30.77;14.20;;;;;;;2.29;43.09;101738.38;6348103;28;20077;-67
2022/03/14 07:20:57;;;;;;;30.05;15.00;;;;;;;2.53;42.78;101734.06;6330955;28;20165;-68
2022/03/14 07:23:58;;;;;;;31.15;15.65;;;;;;;2.76;41.71;101737.47;6347823;28;20040;-68
2022/03/14 07:26:58;;;;;;;33.92;16.63;;;;;;;2.89;41.47;101743.47;6348753;28;20047;-68
2022/03/14 07:29:59;;;;;;;33.65;17.48;;;;;;;3.08;41.42;101746.00;6347465;28;20040;-68
2022/03/14 07:33:00;;;;;;;37.55;18.15;;;;;;;3.30;40.40;101744.22;6346998;28;20053;-68
2022/03/14 07:36:01;;;;;;;33.72;16.35;;;;;;;3.38;40.82;101756.22;6348529;28;20050;-68
2022/03/14 07:39:03;;;;;;;28.35;14.95;;;;;;;3.66;40.13;101747.47;6348624;28;20051;-68
2022/03/14 07:42:04;;;;;;;;;;;;;;;3.79;39.48;101752.56;6348752;28;20122;-68
2022/03/14 07:45:06;;;;;;;24.38;12.10;;;;;;;4.09;38.04;101750.63;6347436;28;19926;-68
2022/03/14 07:48:08;;;;;;;30.42;16.15;;;;;;;4.30;38.60;101754.78;6348219;28;20070;-68
2022/03/14 07:51:09;;;;;;;24.88;11.95;;;;;;;4.41;37.82;101758.16;6346824;28;20039;-68
2022/03/14 07:54:09;;;;;;;26.27;13.57;;;;;;;4.68;37.54;101753.63;6347121;28;20120;-67
2022/03/14 07:57:10;;;;;;;24.52;12.77;;;;;;;4.90;37.17;101762.03;6348055;28;20035;-67
2022/03/14 08:00:14;;;;;;;23.45;12.18;;;;;;;4.99;36.05;101766.25;6348099;28;20043;-68
2022/03/14 08:03:16;;;;;;;20.95;11.40;;;;;;;5.24;36.44;101762.50;6347966;28;20123;-68
2022/03/14 08:06:23;;;;;;;31.92;15.55;;;;;;;5.47;35.47;101763.09;6329778;28;20047;-68
2022/03/14 08:09:23;;;;;;;19.90;11.25;;;;;;;5.57;35.88;101769.88;6347768;28;20043;-67
2022/03/14 08:12:24;;;;;;;21.42;11.73;;;;;;;5.86;35.25;101777.25;6346550;28;20043;-68
2022/03/14 08:15:31;;;;;;;20.63;12.55;;;;;;;6.24;34.69;101768.97;6346385;28;20070;-68
2022/03/14 08:18:31;;;;;;;20.23;11.20;;;;;;;6.11;33.95;101771.75;6347659;28;20052;-68
2022/03/14 08:21:33;;;;;;;22.08;11.57;;;;;;;6.31;34.27;101769.72;6347344;28;20035;-66
2022/03/14 08:24:34;;;;;;;20.42;11.35;;;;;;;6.64;33.67;101763.09;6329575;28;20043;-67
2022/03/14 08:27:36;;;;;;;22.40;11.43;;;;;;;6.72;33.01;101770.75;6312837;28;20132;-66
2022/03/14 08:30:38;;;;;;;19.13;10.75;;;;;;;6.79;32.93;101774.09;6347267;28;20044;-66
2022/03/14 08:33:41;;;;;;;23.48;10.93;;;;;;;7.09;32.91;101777.03;6347177;28;20070;-66
2022/03/14 08:36:42;;;;;;;26.30;10.75;;;;;;;7.24;32.27;101776.72;6347022;28;20047;-65
2022/03/14 08:39:44;;;;;;;22.10;11.20;;;;;;;7.40;32.23;101775.53;6345953;28;20126;-69
2022/03/14 08:42:45;;;;;;;32.60;14.60;;;;;;;7.34;32.49;101782.59;6345264;28;20035;-69
2022/03/14 08:45:46;;;;;;;19.63;11.65;;;;;;;7.66;31.69;101779.34;6345486;28;20040;-69
2022/03/14 08:48:47;;;;;;;21.15;12.27;;;;;;;7.70;32.13;101778.38;6345519;28;20032;-69
2022/03/14 08:51:48;;;;;;;23.63;11.98;;;;;;;7.69;31.50;101778.41;6346570;28;20057;-70
2022/03/14 08:54:49;;;;;;;23.13;11.65;;;;;;;7.90;32.01;101788.31;6328698;28;20035;-70
2022/03/14 08:57:50;;;;;;;21.92;12.15;;;;;;;8.11;31.34;101775.72;6345501;28;20399;-69
2022/03/14 09:00:51;;;;;;;22.27;12.00;;;;;;;8.10;30.98;101784.44;6345597;28;20043;-69
2022/03/14 09:03:52;;;;;;;17.92;11.27;;;;;;;8.43;31.05;101781.06;6346335;28;20560;-70
2022/03/14 09:06:52;;;;;;;18.38;11.18;;;;;;;8.47;30.73;101780.09;6345291;28;20040;-66
2022/03/14 09:09:54;;;;;;;19.50;10.88;;;;;;;8.58;30.18;101789.38;6345137;28;20092;-66
2022/03/14 09:12:55;;;;;;;27.45;11.23;;;;;;;8.73;29.53;101783.78;6345086;28;20097;-66
2022/03/14 09:15:56;;;;;;;20.50;10.80;;;;;;;8.99;28.69;101787.44;6346321;28;20518;-69
2022/03/14 09:18:57;;;;;;;23.00;11.93;;;;;;;8.88;28.89;101791.19;6345310;28;20043;-66
2022/03/14 09:21:58;;;;;;;23.95;11.65;;;;;;;8.84;29.46;101783.50;6327789;28;20063;-69
2022/03/14 09:25:00;;;;;;;23.60;11.65;;;;;;;9.07;29.67;101780.28;6346152;28;20096;-70
2022/03/14 09:28:01;;;;;;;21.73;11.55;;;;;;;9.29;29.63;101790.97;6346071;28;20043;-70
2022/03/14 09:31:02;;;;;;;24.58;11.80;;;;;;;9.47;28.82;101786.97;6346061;28;20600;-66
2022/03/14 09:34:03;;;;;;;20.83;12.23;;;;;;;9.75;28.33;101783.56;6345904;28;20506;-66
2022/03/14 09:37:05;;;;;;;24.05;12.30;;;;;;;9.76;29.17;101785.25;6344870;28;20051;-68
2022/03/14 09:40:12;;;;;;;29.83;12.90;;;;;;;9.90;27.29;101788.31;6345979;28;20446;-68
2022/03/14 09:43:18;;;;;;;28.17;12.60;;;;;;;10.03;26.78;101794.88;6378784;27;20559;-69
2022/03/14 09:46:21;;;;;;;17.40;9.93;;;;;;;10.23;26.80;101780.31;6346012;28;20043;-68
2022/03/14 09:49:24;;;;;;;17.08;10.50;;;;;;;10.49;27.29;101772.53;6344630;28;20419;-69
2022/03/14 09:52:26;;;;;;;21.67;11.00;;;;;;;10.55;26.33;101783.69;6345459;28;20127;-66
2022/03/14 09:55:27;;;;;;;15.27;9.18;;;;;;;10.59;26.20;101778.31;6329982;28;20124;-67
2022/03/14 09:58:28;;;;;;;17.70;9.55;;;;;;;10.85;25.07;101774.81;6351150;28;20557;-67
2022/03/14 10:01:29;;;;;;;21.88;11.55;;;;;;;10.69;25.32;101776.25;6349648;28;20071;-67
2022/03/14 10:04:30;;;;;;;18.25;9.27;;;;;;;10.95;25.73;101775.31;6350786;28;20408;-68
2022/03/14 10:07:32;;;;;;;20.23;9.50;;;;;;;11.17;24.77;101782.41;6349693;28;20039;-68
2022/03/14 10:10:33;;;;;;;17.13;8.90;;;;;;;11.25;24.34;101773.38;6350762;28;20069;-68
2022/03/14 10:13:35;;;;;;;15.05;9.10;;;;;;;11.34;25.47;101776.56;6332546;28;20043;-68
2022/03/14 10:16:37;;;;;;;14.55;7.90;;;;;;;11.68;24.31;101778.78;6332569;28;20051;-68
2022/03/14 10:19:38;;;;;;;18.52;8.60;;;;;;;11.88;23.90;101772.75;6349389;28;20046;-68
2022/03/14 10:22:41;;;;;;;15.55;8.13;;;;;;;11.54;23.92;101768.84;6350371;28;20078;-68
2022/03/14 10:25:43;;;;;;;17.17;8.60;;;;;;;11.89;23.81;101774.50;6350560;28;20035;-68
2022/03/14 10:28:49;;;;;;;14.88;8.02;;;;;;;11.88;24.18;101770.16;6350282;28;20384;-71
2022/03/14 10:31:54;;;;;;;14.35;7.88;;;;;;;12.14;23.82;101763.91;6332530;28;20221;-71
2022/03/14 10:35:05;;;;;;;12.27;7.78;;;;;;;12.37;22.53;101773.44;6350001;28;20066;-71
2022/03/14 10:38:08;;;;;;;15.05;8.00;;;;;;;12.30;23.51;101774.63;6350071;28;20491;-71
2022/03/14 10:41:16;;;;;;;16.35;7.75;;;;;;;12.43;23.43;101773.19;6348735;28;20085;-71
2022/03/14 10:44:24;;;;;;;18.13;7.82;;;;;;;12.37;22.89;101768.22;6349850;28;20392;-72
2022/03/14 10:47:25;;;;;;;13.82;6.97;;;;;;;12.24;23.11;101775.72;6349696;28;20070;-72
2022/03/14 10:50:33;;;;;;;13.83;7.67;;;;;;;12.38;22.46;101766.47;6348703;28;20036;-71
2022/03/14 10:53:38;;;;;;;12.60;7.60;;;;;;;12.48;23.40;101776.50;6349511;28;20901;-71
2022/03/14 10:56:39;;;;;;;12.73;8.00;;;;;;;12.78;23.32;101770.84;6349709;28;20086;-72
2022/03/14 10:59:48;;;;;;;13.38;7.32;;;;;;;13.25;22.75;101770.53;6348444;28;20114;-72
2022/03/14 11:03:03;;;;;;;13.82;6.55;;;;;;;12.86;22.16;101775.78;6349423;28;20031;-71
2022/03/14 11:06:09;;;;;;;13.40;8.02;;;;;;;13.03;22.56;101772.41;6348546;28;20040;-72
2022/03/14 11:09:10;;;;;;;12.00;6.60;;;;;;;13.17;21.94;101772.66;6348036;28;20047;-72
2022/03/14 11:12:14;;;;;;;12.00;7.18;;;;;;;12.94;22.37;101762.34;6348093;28;20065;-72
2022/03/14 11:15:16;;;;;;;12.20;7.40;;;;;;;13.10;22.58;101761.59;6349008;28;20384;-72
2022/03/14 11:18:18;;;;;;;13.63;7.28;;;;;;;12.94;23.26;101762.34;6347930;28;20057;-68
2022/03/14 11:21:24;;;;;;;16.48;6.95;;;;;;;12.71;21.86;101758.97;6349045;28;20043;-68
2022/03/14 11:24:25;;;;;;;11.63;7.10;;;;;;;12.99;22.52;101750.75;6347733;28;20040;-69
2022/03/14 11:27:35;;;;;;;10.68;6.60;;;;;;;13.46;21.31;101753.00;6348744;28;20044;-68
2022/03/14 11:30:38;;;;;;;13.60;7.00;;;;;;;13.01;21.91;101751.53;6348864;28;20123;-68
2022/03/14 11:33:41;;;;;;;11.80;6.97;;;;;;;13.05;22.68;101744.38;6348633;28;20040;-68
2022/03/14 11:36:43;;;;;;;11.20;6.30;;;;;;;13.40;22.73;101732.31;6348693;28;20479;-68
2022/03/14 11:39:45;;;;;;;14.95;7.25;;;;;;;13.53;22.13;101735.25;6348532;28;20043;-68
2022/03/14 11:42:46;;;;;;;10.88;6.80;;;;;;;13.61;21.17;101738.34;6347386;28;20044;-67
2022/03/14 11:45:47;;;;;;;11.00;7.20;;;;;;;13.90;21.59;101718.59;6348671;28;20066;-68
2022/03/14 11:48:48;;;;;;;14.15;7.43;;;;;;;13.98;21.47;101723.47;6348420;28;20051;-68
2022/03/14 11:51:49;;;;;;;11.73;7.18;;;;;;;13.69;21.63;101714.38;6346972;28;20411;-68
2022/03/14 11:54:58;;;;;;;13.38;7.25;;;;;;;13.81;21.66;101711.16;6348056;28;20458;-68
2022/03/14 11:57:59;;;;;;;11.75;6.82;;;;;;;13.84;22.36;101704.94;6347056;28;20096;-68
2022/03/14 12:01:12;;;;;;;12.85;7.28;;;;;;;13.96;21.58;101711.34;6329845;28;20047;-67
2022/03/14 12:04:49;;;;;;;13.15;7.68;;;;;;;14.23;21.54;101715.25;6348079;28;20039;-68
2022/03/14 12:07:51;;;;;;;10.63;6.88;;;;;;;14.18;21.17;101711.13;6347891;28;20043;-68
2022/03/14 12:10:52;;;;;;;18.83;7.63;;;;;;;14.02;21.00;101705.78;6329906;28;20040;-68
2022/03/14 12:13:53;;;;;;;13.43;6.68;;;;;;;13.66;22.56;101701.41;6329726;28;20491;-72
2022/03/14 12:16:54;;;;;;;13.70;7.25;;;;;;;13.60;20.48;101699.94;6329641;28;20419;-72
2022/03/14 12:19:56;;;;;;;15.73;8.43;;;;;;;13.60;21.25;101705.16;6345473;28;20035;-71
2022/03/14 12:22:57;;;;;;;12.43;7.75;;;;;;;13.66;20.64;101697.00;6347646;28;20051;-71
2022/03/14 12:25:58;;;;;;;8.68;6.20;;;;;;;13.76;20.21;101694.81;6346155;28;20046;-72
2022/03/14 12:29:35;;;;;;;14.48;6.63;;;;;;;14.13;20.40;101690.38;6346303;28;20096;-71
2022/03/14 12:32:40;;;;;;;11.57;6.75;;;;;;;14.15;19.93;101683.28;6346140;28;20044;-72
2022/03/14 12:35:41;;;;;;;15.65;7.10;;;;;;;14.11;20.33;101681.72;6345997;28;20100;-71
2022/03/14 12:38:42;;;;;;;12.27;6.82;;;;;;;14.06;20.44;101674.09;6346007;28;20403;-72
2022/03/14 12:41:43;;;;;;;12.10;7.00;;;;;;;13.96;20.90;101674.59;6345936;28;20043;-71
2022/03/14 12:45:19;;;;;;;12.25;6.97;;;;;;;14.10;20.81;101661.63;6345819;28;20044;-71
2022/03/14 12:48:21;;;;;;;11.98;6.70;;;;;;;14.06;20.50;101663.59;6346784;28;20039;-72
2022/03/14 12:51:26;;;;;;;;;;;;;;;14.07;20.59;101662.66;6347197;28;20039;-72
2022/03/14 12:54:32;;;;;;;13.13;7.38;;;;;;;13.99;20.64;101667.44;6346673;28;20057;-71
2022/03/14 12:57:34;;;;;;;12.75;6.22;;;;;;;13.90;20.55;101654.78;6347074;28;20484;-72
2022/03/14 13:00:38;;;;;;;10.57;5.90;;;;;;;14.00;20.01;101650.78;6345514;28;20445;-72
2022/03/14 13:03:44;;;;;;;9.27;5.55;;;;;;;13.96;21.08;101653.59;6346586;28;20131;-72
2022/03/14 13:06:51;;;;;;;11.32;6.35;;;;;;;13.95;19.98;101650.13;6346354;28;20103;-72
2022/03/14 13:09:54;;;;;;;15.82;8.35;;;;;;;14.13;20.51;101648.38;6345323;28;20067;-71
2022/03/14 13:12:55;;;;;;;7.90;6.00;;;;;;;14.07;19.97;101646.91;6346458;28;20497;-72
2022/03/14 13:16:16;;;;;;;11.40;6.32;;;;;;;14.01;20.84;101646.38;6328226;28;20051;-72
2022/03/14 13:19:19;;;;;;;9.75;5.90;;;;;;;14.17;21.22;101649.91;6346321;28;20411;-72
2022/03/14 13:22:22;;;;;;;13.13;6.40;;;;;;;14.09;21.31;101650.31;6345187;28;20065;-72
2022/03/14 13:25:34;;;;;;;9.95;6.03;;;;;;;14.08;21.29;101655.63;6345447;28;20035;-72
2022/03/14 13:28:37;;;;;;;13.52;7.28;;;;;;;14.20;21.01;101647.13;6346105;28;20036;-72
2022/03/14 13:31:41;;;;;;;10.13;6.03;;;;;;;14.27;20.84;101652.94;6344662;28;20046;-71
2022/03/14 13:34:43;;;;;;;14.20;6.47;;;;;;;14.11;20.71;101655.47;6345982;28;20372;-72
2022/03/14 13:37:45;;;;;;;16.35;9.20;;;;;;;14.28;20.66;101650.22;6344844;28;20125;-72
2022/03/14 13:40:46;;;;;;;10.98;6.03;;;;;;;14.31;20.65;101654.47;6344741;28;20147;-71
2022/03/14 13:43:49;;;;;;;9.27;6.30;;;;;;;14.29;20.50;101657.19;6344744;28;20484;-71
2022/03/14 13:46:53;;;;;;;12.07;5.80;;;;;;;13.91;21.25;101648.59;6344407;28;20054;-71
2022/03/14 13:50:01;;;;;;;11.55;6.78;;;;;;;13.50;21.12;101656.69;6346272;28;20432;-72
2022/03/14 13:53:02;;;;;;;9.82;6.10;;;;;;;13.64;21.09;101654.28;6344521;28;20047;-72
2022/03/14 13:56:03;;;;;;;8.75;5.13;;;;;;;13.55;20.90;101649.47;6345703;28;20043;-71